createdAt,value
2018-04-08T00:02:07.072Z,8.10
2018-04-08T00:04:34.667Z,8.37
2018-04-08T00:07:02.242Z,7.67
2018-04-08T00:09:29.831Z,8.00
2018-04-08T00:11:57.381Z,9.27
2018-04-08T00:14:25.047Z,7.93
2018-04-08T00:16:52.885Z,7.30
2018-04-08T00:19:20.499Z,8.50
2018-04-08T00:21:48.814Z,7.43
2018-04-08T00:24:16.400Z,6.83
2018-04-08T00:26:44.044Z,8.87
2018-04-08T00:29:11.639Z,9.20
2018-04-08T00:31:39.265Z,7.37
2018-04-08T00:34:06.833Z,11.47
2018-04-08T00:36:34.367Z,6.97
2018-04-08T00:39:01.970Z,7.17
2018-04-08T00:41:29.509Z,8.23
2018-04-08T00:43:57.112Z,8.50
2018-04-08T00:46:24.674Z,6.97
2018-04-08T00:48:52.226Z,7.40
2018-04-08T00:51:19.811Z,8.63
2018-04-08T00:53:48.174Z,7.87
2018-04-08T00:56:15.738Z,8.40
2018-04-08T00:58:43.277Z,7.03
2018-04-08T01:01:10.953Z,10.70
2018-04-08T01:03:38.497Z,8.50
2018-04-08T01:06:06.095Z,8.03
2018-04-08T01:08:34.448Z,9.70
2018-04-08T01:11:02.024Z,7.43
2018-04-08T01:13:30.352Z,8.47
2018-04-08T01:15:57.934Z,7.83
2018-04-08T01:18:26.295Z,8.03
2018-04-08T01:20:53.850Z,7.60
2018-04-08T01:23:21.469Z,10.20
2018-04-08T01:25:49.809Z,6.87
2018-04-08T01:28:17.373Z,10.50
2018-04-08T01:30:44.963Z,7.97
2018-04-08T01:33:12.528Z,8.00
2018-04-08T01:35:40.873Z,7.23
2018-04-08T01:38:08.413Z,8.60
2018-04-08T01:40:35.993Z,8.33
2018-04-08T01:43:03.556Z,6.80
2018-04-08T01:45:31.146Z,8.23
2018-04-08T01:47:58.749Z,9.37
2018-04-08T01:50:26.295Z,6.60
2018-04-08T01:52:53.876Z,8.27
2018-04-08T01:55:21.435Z,8.27
2018-04-08T01:57:49.004Z,9.30
2018-04-08T02:00:16.564Z,8.67
2018-04-08T02:02:44.141Z,8.37
2018-04-08T02:05:11.690Z,8.23
2018-04-08T02:07:39.266Z,8.13
2018-04-08T02:10:08.309Z,7.50
2018-04-08T02:12:35.864Z,9.63
2018-04-08T02:15:04.185Z,10.07
2018-04-08T02:17:31.733Z,9.80
2018-04-08T02:19:59.311Z,8.17
2018-04-08T02:22:26.933Z,9.17
2018-04-08T02:24:54.515Z,9.13
2018-04-08T02:27:22.078Z,9.37
2018-04-08T02:29:49.636Z,9.87
2018-04-08T02:32:17.189Z,6.97
2018-04-08T02:34:44.752Z,8.97
2018-04-08T02:37:12.315Z,8.87
2018-04-08T02:39:39.868Z,8.13
2018-04-08T02:42:07.442Z,8.17
2018-04-08T02:44:34.985Z,9.37
2018-04-08T02:47:02.578Z,9.83
2018-04-08T02:49:30.120Z,9.87
2018-04-08T02:51:57.702Z,8.30
2018-04-08T02:54:25.266Z,10.27
2018-04-08T02:56:53.246Z,8.53
2018-04-08T02:59:22.341Z,8.00
2018-04-08T03:01:50.681Z,9.07
2018-04-08T03:04:18.242Z,9.70
2018-04-08T03:06:45.823Z,8.77
2018-04-08T03:09:13.411Z,6.70
2018-04-08T03:11:41.737Z,7.87
2018-04-08T03:14:09.288Z,9.27
2018-04-08T03:16:36.844Z,9.83
2018-04-08T03:19:04.410Z,9.40
2018-04-08T03:21:32.981Z,9.03
2018-04-08T03:24:00.550Z,10.10
2018-04-08T03:26:28.114Z,9.40
2018-04-08T03:28:55.686Z,9.07
2018-04-08T03:31:23.248Z,8.57
2018-04-08T03:33:50.813Z,9.53
2018-04-08T03:36:18.392Z,8.93
2018-04-08T03:38:45.993Z,8.27
2018-04-08T03:41:13.549Z,8.40
2018-04-08T03:43:41.134Z,11.73
2018-04-08T03:46:08.684Z,9.53
2018-04-08T03:48:36.252Z,11.30
2018-04-08T03:51:03.809Z,8.47
2018-04-08T03:53:31.406Z,9.67
2018-04-08T03:55:58.968Z,8.73
2018-04-08T03:58:26.554Z,9.53
2018-04-08T04:00:54.885Z,8.93
2018-04-08T04:03:22.493Z,10.13
2018-04-08T04:05:50.182Z,8.83
2018-04-08T04:08:17.773Z,10.30
2018-04-08T04:10:45.384Z,7.83
2018-04-08T04:13:12.957Z,7.83
2018-04-08T04:15:40.621Z,9.03
2018-04-08T04:18:20.023Z,7.93
2018-04-08T04:21:00.240Z,9.40
2018-04-08T04:26:32.841Z,8.33
2018-04-08T04:29:00.400Z,8.87
2018-04-08T04:31:27.964Z,8.70
2018-04-08T04:33:55.521Z,7.50
2018-04-08T04:36:23.872Z,8.33
2018-04-08T04:38:51.466Z,9.47
2018-04-08T04:41:19.025Z,7.80
2018-04-08T04:43:46.633Z,8.37
2018-04-08T04:46:15.120Z,7.37
2018-04-08T04:48:43.424Z,9.17
2018-04-08T04:51:11.004Z,10.60
2018-04-08T04:53:38.558Z,7.90
2018-04-08T04:56:06.120Z,10.33
2018-04-08T04:58:34.592Z,8.83
2018-04-08T05:01:02.153Z,7.63
2018-04-08T05:03:29.709Z,8.97
2018-04-08T05:05:57.264Z,10.20
2018-04-08T05:08:24.836Z,8.10
2018-04-08T05:10:52.409Z,8.27
2018-04-08T05:13:19.972Z,9.23
2018-04-08T05:15:47.540Z,10.47
2018-04-08T05:18:15.104Z,11.83
2018-04-08T05:20:42.652Z,7.70
2018-04-08T05:23:10.239Z,8.87
2018-04-08T05:25:37.779Z,8.47
2018-04-08T05:28:05.364Z,9.20
2018-04-08T05:30:33.680Z,7.87
2018-04-08T05:33:01.302Z,9.37
2018-04-08T05:35:29.614Z,8.90
2018-04-08T05:37:57.165Z,8.53
2018-04-08T05:40:24.723Z,8.63
2018-04-08T05:42:52.269Z,7.90
2018-04-08T05:45:20.593Z,9.13
2018-04-08T05:47:48.189Z,7.33
2018-04-08T05:50:15.725Z,10.50
2018-04-08T05:52:43.273Z,11.40
2018-04-08T05:55:10.836Z,11.90
2018-04-08T05:57:38.404Z,14.50
2018-04-08T06:00:06.117Z,15.13
2018-04-08T06:02:33.678Z,36.87
2018-04-08T06:05:01.260Z,15.60
2018-04-08T06:07:28.841Z,9.23
2018-04-08T06:09:56.393Z,25.87
2018-04-08T06:12:23.945Z,8.77
2018-04-08T06:14:51.596Z,36.27
2018-04-08T06:17:19.154Z,12.13
2018-04-08T06:19:46.749Z,9.23
2018-04-08T06:22:14.329Z,11.27
2018-04-08T06:24:41.889Z,10.33
2018-04-08T06:27:10.309Z,11.33
2018-04-08T06:29:37.889Z,9.27
2018-04-08T06:32:05.620Z,9.03
2018-04-08T06:34:33.181Z,8.23
2018-04-08T06:37:00.869Z,9.43
2018-04-08T06:39:28.446Z,11.27
2018-04-08T06:41:56.010Z,11.07
2018-04-08T06:44:23.595Z,12.40
2018-04-08T06:46:51.165Z,9.83
2018-04-08T06:49:19.547Z,10.40
2018-04-08T06:51:47.228Z,9.23
2018-04-08T06:54:14.799Z,18.07
2018-04-08T06:56:42.455Z,15.83
2018-04-08T06:59:10.022Z,14.63
2018-04-08T07:01:37.588Z,11.43
2018-04-08T07:04:05.150Z,10.90
2018-04-08T07:06:32.697Z,10.83
2018-04-08T07:09:00.476Z,9.63
2018-04-08T07:11:28.025Z,11.10
2018-04-08T07:13:55.673Z,12.17
2018-04-08T07:16:23.257Z,12.73
2018-04-08T07:18:50.848Z,9.97
2018-04-08T07:21:18.393Z,9.73
2018-04-08T07:23:45.970Z,8.23
2018-04-08T07:26:14.453Z,10.17
2018-04-08T07:28:42.030Z,10.07
2018-04-08T07:31:09.582Z,11.03
2018-04-08T07:33:37.141Z,11.00
2018-04-08T07:36:05.578Z,9.90
2018-04-08T07:38:33.149Z,8.97
2018-04-08T07:41:00.727Z,12.17
2018-04-08T07:43:28.326Z,12.70
2018-04-08T07:45:56.771Z,11.50
2018-04-08T07:48:24.355Z,11.47
2018-04-08T07:50:51.913Z,11.33
2018-04-08T07:53:20.249Z,10.93
2018-04-08T07:55:47.817Z,11.23
2018-04-08T07:58:15.373Z,8.37
2018-04-08T08:00:42.941Z,10.67
2018-04-08T08:03:10.589Z,10.43
2018-04-08T08:05:38.187Z,12.23
2018-04-08T08:08:05.781Z,8.53
2018-04-08T08:10:33.367Z,8.87
2018-04-08T08:13:00.926Z,18.03
2018-04-08T08:15:28.853Z,8.53
2018-04-08T08:17:57.180Z,9.33
2018-04-08T08:20:24.733Z,9.07
2018-04-08T08:22:52.298Z,10.30
2018-04-08T08:25:19.855Z,9.07
2018-04-08T08:27:47.429Z,8.67
2018-04-08T08:30:14.981Z,8.97
2018-04-08T08:32:42.578Z,10.57
2018-04-08T08:35:10.909Z,9.07
2018-04-08T08:37:38.537Z,11.80
2018-04-08T08:40:06.909Z,10.33
2018-04-08T08:42:35.265Z,9.00
2018-04-08T08:45:02.817Z,11.43
2018-04-08T08:47:30.386Z,8.40
2018-04-08T08:49:57.964Z,7.50
2018-04-08T08:52:26.315Z,8.63
2018-04-08T08:54:53.911Z,8.93
2018-04-08T08:57:21.464Z,9.70
2018-04-08T08:59:49.876Z,9.37
2018-04-08T09:02:17.866Z,9.27
2018-04-08T09:04:45.674Z,11.23
2018-04-08T09:07:14.029Z,14.37
2018-04-08T09:09:41.612Z,14.73
2018-04-08T09:12:09.940Z,11.77
2018-04-08T09:37:32.704Z,10.40
2018-04-08T09:40:00.298Z,13.47
2018-04-08T09:42:27.862Z,12.20
2018-04-08T09:44:55.475Z,11.80
2018-04-08T09:47:23.069Z,16.70
2018-04-08T09:49:50.811Z,11.53
2018-04-08T09:52:18.569Z,12.07
2018-04-08T09:54:46.122Z,13.03
2018-04-08T09:57:13.694Z,13.10
2018-04-08T09:59:41.263Z,15.80
2018-04-08T10:02:14.353Z,11.83
2018-04-08T10:04:41.948Z,12.10
2018-04-08T10:07:09.492Z,12.80
2018-04-08T10:09:37.050Z,15.63
2018-04-08T10:12:04.649Z,14.00
2018-04-08T10:14:32.259Z,14.23
2018-04-08T10:16:59.968Z,13.33
2018-04-08T10:19:28.314Z,20.77
2018-04-08T10:21:55.846Z,15.60
2018-04-08T10:24:23.457Z,19.10
2018-04-08T10:26:51.960Z,13.17
2018-04-08T10:29:19.576Z,15.80
2018-04-08T10:31:47.087Z,12.23
2018-04-08T10:34:15.539Z,12.67
2018-04-08T10:36:44.889Z,15.77
2018-04-08T10:39:12.485Z,11.73
2018-04-08T10:41:41.427Z,16.87
2018-04-08T10:44:09.002Z,16.27
2018-04-08T10:46:36.599Z,16.73
2018-04-08T10:49:04.172Z,19.30
2018-04-08T10:51:31.723Z,19.60
2018-04-08T10:54:01.531Z,19.73
2018-04-08T10:56:29.090Z,16.83
2018-04-08T10:58:56.655Z,17.77
2018-04-08T11:01:25.041Z,19.80
2018-04-08T11:03:52.612Z,18.63
2018-04-08T11:06:20.949Z,21.97
2018-04-08T11:08:48.492Z,24.30
2018-04-08T11:11:16.062Z,20.47
2018-04-08T11:13:43.639Z,20.47
2018-04-08T11:16:11.341Z,21.07
2018-04-08T11:18:39.710Z,19.03
2018-04-08T11:21:08.782Z,17.57
2018-04-08T11:23:36.340Z,19.87
2018-04-08T11:26:03.926Z,19.33
2018-04-08T11:28:32.289Z,20.77
2018-04-08T11:30:59.884Z,15.83
2018-04-08T11:33:28.234Z,17.03
2018-04-08T11:35:56.729Z,18.50
2018-04-08T11:38:25.137Z,16.67
2018-04-08T11:40:52.721Z,17.80
2018-04-08T11:43:20.682Z,16.17
2018-04-08T11:45:48.198Z,17.50
2018-04-08T11:48:16.562Z,15.37
2018-04-08T11:50:44.201Z,15.60
2018-04-08T11:53:11.932Z,20.40
2018-04-08T11:55:39.512Z,19.47
2018-04-08T11:58:07.086Z,22.17
2018-04-08T12:00:34.650Z,20.43
2018-04-08T12:03:02.242Z,20.27
2018-04-08T12:05:30.589Z,18.80
2018-04-08T12:07:58.150Z,19.60
2018-04-08T12:10:25.705Z,18.80
2018-04-08T12:12:53.342Z,21.57
2018-04-08T12:15:20.920Z,19.87
2018-04-08T12:17:48.531Z,15.87
2018-04-08T12:20:16.885Z,17.97
2018-04-08T12:22:44.433Z,16.10
2018-04-08T12:25:12.065Z,15.48
2018-04-08T12:27:39.716Z,19.47
2018-04-08T12:30:07.304Z,16.73
2018-04-08T12:32:34.869Z,15.00
2018-04-08T12:35:02.421Z,14.73
2018-04-08T12:37:30.118Z,12.90
2018-04-08T12:39:57.709Z,12.90
2018-04-08T12:42:25.384Z,16.00
2018-04-08T12:44:52.950Z,15.30
2018-04-08T12:47:20.530Z,15.82
2018-04-08T12:49:48.096Z,16.40
2018-04-08T12:52:15.675Z,16.77
2018-04-08T12:54:43.249Z,15.33
2018-04-08T12:57:11.592Z,17.12
2018-04-08T12:59:39.156Z,15.50
2018-04-08T13:02:06.728Z,14.15
2018-04-08T13:04:35.809Z,15.70
2018-04-08T13:07:03.417Z,13.57
2018-04-08T13:09:31.817Z,17.50
2018-04-08T13:11:59.366Z,13.27
2018-04-08T13:14:27.039Z,13.17
2018-04-08T13:16:54.628Z,12.67
2018-04-08T13:19:22.177Z,12.53
2018-04-08T13:21:50.738Z,15.17
2018-04-08T13:24:18.313Z,15.77
2018-04-08T13:26:45.860Z,12.53
2018-04-08T13:29:13.536Z,11.00
2018-04-08T13:31:41.092Z,13.70
2018-04-08T13:34:08.665Z,14.93
2018-04-08T13:36:36.225Z,11.07
2018-04-08T13:39:03.806Z,10.57
2018-04-08T13:41:31.364Z,11.30
2018-04-08T13:43:59.093Z,10.70
2018-04-08T13:46:26.681Z,11.93
2018-04-08T13:48:54.232Z,12.23
2018-04-08T13:51:21.817Z,13.85
2018-04-08T13:53:49.422Z,17.57
2018-04-08T13:56:17.016Z,13.90
2018-04-08T13:58:44.552Z,13.17
2018-04-08T14:01:12.120Z,13.63
2018-04-08T14:03:39.693Z,14.07
2018-04-08T14:06:07.376Z,12.52
2018-04-08T14:08:34.970Z,13.48
2018-04-08T14:11:03.285Z,11.83
2018-04-08T14:13:30.862Z,12.65
2018-04-08T14:15:58.654Z,12.63
2018-04-08T14:18:26.213Z,13.52
2018-04-08T14:20:53.769Z,12.10
2018-04-08T14:23:22.116Z,13.62
2018-04-08T14:25:49.757Z,14.30
2018-04-08T14:28:17.311Z,12.23
2018-04-08T14:30:44.902Z,12.63
2018-04-08T14:33:12.467Z,13.03
2018-04-08T14:35:40.084Z,36.60
2018-04-08T14:38:07.646Z,17.80
2018-04-08T14:40:35.244Z,13.40
2018-04-08T14:43:02.788Z,14.10
2018-04-08T14:45:30.356Z,15.50
2018-04-08T14:47:57.918Z,12.82
2018-04-08T14:50:25.480Z,15.10
2018-04-08T14:52:53.055Z,8.97
2018-04-08T14:55:20.608Z,12.13
2018-04-08T14:57:48.240Z,12.80
2018-04-08T15:00:15.807Z,11.77
2018-04-08T15:02:43.341Z,10.33
2018-04-08T15:05:10.888Z,13.70
2018-04-08T15:07:39.227Z,9.77
2018-04-08T15:10:06.825Z,10.27
2018-04-08T15:12:35.161Z,13.33
2018-04-08T15:15:02.712Z,10.33
2018-04-08T15:17:30.283Z,14.13
2018-04-08T15:19:57.871Z,8.20
2018-04-08T15:22:25.436Z,11.53
2018-04-08T15:24:53.776Z,12.13
2018-04-08T15:27:21.350Z,9.87
2018-04-08T15:29:48.912Z,9.57
2018-04-08T15:32:17.006Z,9.70
2018-04-08T15:34:44.630Z,13.17
2018-04-08T15:37:12.261Z,10.30
2018-04-08T15:39:39.821Z,7.60
2018-04-08T15:42:07.380Z,11.90
2018-04-08T15:44:34.957Z,10.93
2018-04-08T15:47:02.524Z,11.50
2018-04-08T15:49:30.376Z,14.17
2018-04-08T15:51:57.926Z,12.40
2018-04-08T15:54:25.512Z,9.90
2018-04-08T15:56:53.167Z,8.60
2018-04-08T15:59:20.732Z,8.60
2018-04-08T16:01:48.317Z,10.33
2018-04-08T16:04:15.900Z,9.40
2018-04-08T16:06:44.241Z,7.83
2018-04-08T16:09:11.974Z,12.60
2018-04-08T16:11:39.525Z,11.33
2018-04-08T16:14:07.153Z,10.87
2018-04-08T16:16:34.878Z,10.77
2018-04-08T16:19:02.533Z,10.57
2018-04-08T16:21:30.105Z,6.77
2018-04-08T16:23:57.704Z,11.57
2018-04-08T16:26:25.280Z,8.20
2018-04-08T16:28:53.649Z,7.03
2018-04-08T16:31:21.274Z,10.60
2018-04-08T16:33:48.826Z,8.40
2018-04-08T16:36:16.410Z,7.37
2018-04-08T16:38:43.981Z,8.73
2018-04-08T16:41:11.637Z,7.73
2018-04-08T16:43:40.018Z,10.67
2018-04-08T16:46:07.644Z,8.20
2018-04-08T16:48:35.389Z,11.70
2018-04-08T16:51:02.987Z,11.50
2018-04-08T16:53:30.661Z,7.10
2018-04-08T16:55:58.256Z,8.53
2018-04-08T16:58:26.557Z,10.40
2018-04-08T17:00:54.124Z,13.87
2018-04-08T17:03:22.641Z,10.53
2018-04-08T17:05:50.258Z,7.17
2018-04-08T17:08:17.919Z,9.17
2018-04-08T17:10:45.538Z,8.63
2018-04-08T17:13:13.236Z,8.80
2018-04-08T17:15:40.814Z,6.37
2018-04-08T17:18:08.403Z,8.20
2018-04-08T17:20:35.972Z,8.20
2018-04-08T17:23:03.558Z,7.73
2018-04-08T17:25:31.878Z,6.67
2018-04-08T17:27:59.464Z,8.47
2018-04-08T17:30:27.025Z,8.80
2018-04-08T17:32:54.627Z,8.50
2018-04-08T17:35:22.960Z,6.43
2018-04-08T17:37:50.529Z,8.63
2018-04-08T17:40:18.101Z,6.10
2018-04-08T17:42:45.671Z,10.27
2018-04-08T17:45:13.269Z,7.33
2018-04-08T17:47:40.861Z,10.03
2018-04-08T17:50:08.458Z,8.53
2018-04-08T17:52:36.801Z,7.83
2018-04-08T17:55:04.429Z,11.03
2018-04-08T17:57:32.005Z,8.70
2018-04-08T17:59:59.586Z,6.47
2018-04-08T18:02:27.156Z,7.37
2018-04-08T18:04:54.761Z,9.53
2018-04-08T18:07:22.322Z,7.87
2018-04-08T18:09:49.898Z,7.17
2018-04-08T18:12:17.518Z,7.90
2018-04-08T18:14:45.838Z,8.57
2018-04-08T18:17:14.011Z,8.30
2018-04-08T18:19:41.596Z,11.80
2018-04-08T18:22:09.166Z,9.13
2018-04-08T18:24:36.792Z,12.57
2018-04-08T18:27:04.424Z,9.97
2018-04-08T18:29:32.752Z,11.67
2018-04-08T18:32:00.327Z,11.93
2018-04-08T18:34:27.975Z,10.60
2018-04-08T18:36:55.596Z,21.50
2018-04-08T18:39:23.178Z,13.77
2018-04-08T18:41:50.769Z,15.47
2018-04-08T18:44:19.213Z,9.63
2018-04-08T18:46:46.835Z,9.13
2018-04-08T18:49:15.179Z,11.93
2018-04-08T18:51:43.188Z,11.63
2018-04-08T18:54:11.638Z,11.93
2018-04-08T18:56:39.712Z,11.97
2018-04-08T18:59:07.374Z,12.13
2018-04-08T19:01:35.100Z,11.90
2018-04-08T19:04:02.658Z,10.73
2018-04-08T19:06:30.254Z,12.57
2018-04-08T19:08:58.495Z,12.87
2018-04-08T19:11:26.070Z,15.57
2018-04-08T19:13:53.654Z,18.37
2018-04-08T19:16:21.247Z,16.90
2018-04-08T19:18:49.643Z,18.10
2018-04-08T19:21:17.974Z,17.40
2018-04-08T19:23:48.418Z,17.57
2018-04-08T19:26:15.982Z,15.07
2018-04-08T19:28:43.579Z,14.60
2018-04-08T19:31:11.244Z,16.70
2018-04-08T19:33:38.946Z,18.13
2018-04-08T19:36:06.527Z,15.27
2018-04-08T19:38:34.152Z,14.97
2018-04-08T19:41:01.770Z,19.20
2018-04-08T19:43:30.123Z,14.57
2018-04-08T19:45:57.704Z,14.33
2018-04-08T19:48:26.042Z,15.20
2018-04-08T19:50:53.730Z,15.17
2018-04-08T19:53:22.262Z,15.10
2018-04-08T19:55:50.027Z,16.10
2018-04-08T19:58:17.602Z,13.27
2018-04-08T20:00:45.223Z,13.30
2018-04-08T20:03:12.797Z,18.63
2018-04-08T20:05:40.402Z,13.50
2018-04-08T20:08:07.994Z,15.30
2018-04-08T20:10:36.356Z,15.17
2018-04-08T20:13:04.005Z,13.33
2018-04-08T20:15:31.591Z,13.77
2018-04-08T20:17:59.950Z,15.60
2018-04-08T20:20:27.526Z,13.57
2018-04-08T20:22:55.095Z,15.00
2018-04-08T20:25:23.510Z,14.93
2018-04-08T20:27:51.181Z,14.83
2018-04-08T20:30:18.767Z,17.07
2018-04-08T20:32:46.368Z,14.87
2018-04-08T20:35:13.946Z,12.43
2018-04-08T20:37:41.555Z,14.40
2018-04-08T20:40:09.981Z,19.50
2018-04-08T20:42:37.640Z,9.97
2018-04-08T20:45:05.226Z,14.37
2018-04-08T20:47:32.817Z,11.47
2018-04-08T20:50:00.350Z,10.53
2018-04-08T20:52:27.935Z,11.23
2018-04-08T20:54:55.553Z,9.23
2018-04-08T20:57:23.170Z,8.93
2018-04-08T20:59:50.795Z,9.40
2018-04-08T21:02:18.403Z,12.60
2018-04-08T21:04:46.790Z,10.80
2018-04-08T21:07:15.126Z,10.03
2018-04-08T21:09:42.702Z,9.83
2018-04-08T21:12:10.281Z,13.60
2018-04-08T21:14:38.756Z,11.10
2018-04-08T21:17:06.792Z,10.53
2018-04-08T21:19:34.386Z,12.20
2018-04-08T21:22:02.720Z,11.17
2018-04-08T21:24:30.360Z,11.83
2018-04-08T21:26:57.878Z,10.47
2018-04-08T21:29:25.465Z,12.20
2018-04-08T21:31:53.064Z,10.47
2018-04-08T21:34:20.651Z,10.97
2018-04-08T21:36:48.196Z,10.40
2018-04-08T21:39:15.786Z,11.03
2018-04-08T21:41:43.350Z,12.17
2018-04-08T21:44:10.942Z,11.97
2018-04-08T21:46:38.631Z,13.17
2018-04-08T21:49:06.271Z,13.27
2018-04-08T21:51:33.841Z,12.30
2018-04-08T21:54:01.422Z,13.17
2018-04-08T21:56:28.986Z,14.83
2018-04-08T21:58:56.553Z,16.50
2018-04-08T22:01:24.158Z,13.53
2018-04-08T22:03:51.764Z,13.93
2018-04-08T22:06:19.344Z,11.90
2018-04-08T22:08:46.926Z,14.53
2018-04-08T22:11:15.324Z,12.27
2018-04-08T22:13:42.902Z,13.73
2018-04-08T22:16:10.457Z,13.70
2018-04-08T22:18:38.087Z,14.73
2018-04-08T22:21:05.631Z,12.37
2018-04-08T22:23:33.189Z,15.23
2018-04-08T22:26:00.769Z,13.07
2018-04-08T22:28:29.268Z,15.07
2018-04-08T22:30:56.866Z,16.03
2018-04-08T22:33:24.459Z,15.43
2018-04-08T22:35:52.802Z,14.47
2018-04-08T22:38:20.393Z,14.13
2018-04-08T22:40:49.203Z,14.20
2018-04-08T22:43:16.825Z,13.43
2018-04-08T22:45:44.377Z,11.20
2018-04-08T22:48:11.946Z,15.40
2018-04-08T22:50:39.503Z,12.67
2018-04-08T22:53:07.081Z,14.50
2018-04-08T22:55:34.635Z,15.27
2018-04-08T22:58:02.237Z,13.20
2018-04-08T23:00:29.777Z,12.53
2018-04-08T23:02:58.127Z,16.43
2018-04-08T23:05:25.800Z,14.07
2018-04-08T23:07:53.386Z,12.83
2018-04-08T23:10:21.718Z,13.03
2018-04-08T23:12:49.338Z,13.93
2018-04-08T23:15:16.850Z,14.10
2018-04-08T23:17:44.426Z,11.83
2018-04-08T23:20:12.018Z,15.17
2018-04-08T23:22:39.590Z,9.60
2018-04-08T23:25:07.167Z,10.50
2018-04-08T23:27:34.737Z,14.60
2018-04-08T23:30:02.338Z,11.83
2018-04-08T23:32:30.749Z,14.83
2018-04-08T23:34:58.446Z,16.93
2018-04-08T23:37:26.029Z,13.23
2018-04-08T23:39:53.610Z,13.20
2018-04-08T23:42:21.930Z,10.40
2018-04-08T23:44:49.497Z,15.33
2018-04-08T23:47:17.058Z,13.97
2018-04-08T23:49:44.637Z,11.97
2018-04-08T23:52:12.207Z,13.10
2018-04-08T23:54:39.778Z,13.50
2018-04-08T23:57:08.116Z,12.17
2018-04-08T23:59:35.671Z,11.90
